Time;durP1;ratioP1;P1;durP2;ratioP2;P2;SDS_P1;SDS_P2;PMS_P1;PMS_P2;Temp;Humidity;BMP_temperature;BMP_pressure;BME280_temperature;BME280_humidity;BME280_pressure;Samples;Min_cycle;Max_cycle;Signal;HPM_P1;HPM_P2
2021/12/01 00:00:37;;;;;;;;;12.75;10.50;;;;;10.09;67.98;100604.25;5050737;28;45833;-66
2021/12/01 00:03:03;;;;;;;;;13.50;10.50;;;;;10.14;67.71;100602.50;5050996;28;45970;-66
2021/12/01 00:05:34;;;;;;;;;7.75;7.00;;;;;10.05;67.84;100582.41;5051228;28;45856;-66
2021/12/01 00:08:00;;;;;;;;;8.50;8.50;;;;;10.12;67.63;100601.63;5050441;28;45573;-68
2021/12/01 00:10:27;;;;;;;;;10.50;9.00;;;;;10.15;67.83;100604.22;5052451;28;45629;-68
2021/12/01 00:12:53;;;;;;;;;8.75;8.50;;;;;10.12;67.65;100597.25;5051347;28;45952;-66
2021/12/01 00:15:19;;;;;;;;;10.00;10.00;;;;;10.14;67.60;100590.28;5051641;28;45466;-66
2021/12/01 00:17:45;;;;;;;;;10.25;9.00;;;;;10.12;67.75;100575.44;5050811;28;45781;-67
2021/12/01 00:20:15;;;;;;;;;11.50;9.75;;;;;10.14;67.79;100576.31;5039671;28;46126;-66
2021/12/01 00:22:41;;;;;;;;;10.50;10.50;;;;;10.16;67.75;100559.75;5047661;28;45774;-67
2021/12/01 00:25:10;;;;;;;;;9.75;9.50;;;;;10.18;68.13;100562.38;5052007;28;45858;-66
2021/12/01 00:27:37;;;;;;;;;10.50;10.50;;;;;10.12;67.81;100537.06;5051048;28;45506;-66
2021/12/01 00:30:03;;;;;;;;;9.00;9.00;;;;;10.17;67.99;100530.06;5051001;28;45756;-68
2021/12/01 00:32:29;;;;;;;;;8.25;8.00;;;;;10.07;67.96;100507.41;5030998;28;46187;-67
2021/12/01 00:34:54;;;;;;;;;15.50;12.50;;;;;10.08;68.07;100503.03;5041058;28;45569;-68
2021/12/01 00:37:21;;;;;;;;;11.75;9.25;;;;;10.07;67.90;100496.94;5030536;28;46047;-68
2021/12/01 00:39:47;;;;;;;;;9.00;9.00;;;;;10.13;67.96;100490.81;5029153;28;45730;-68
2021/12/01 00:42:12;;;;;;;;;11.00;10.00;;;;;10.09;68.11;100470.78;5030428;28;46134;-67
2021/12/01 00:44:46;;;;;;;;;9.50;7.75;;;;;10.13;67.62;100468.16;5050297;28;45497;-68
2021/12/01 00:47:13;;;;;;;;;10.00;9.75;;;;;10.09;67.79;100440.25;5050759;28;45826;-67
2021/12/01 00:49:39;;;;;;;;;11.00;8.75;;;;;10.14;67.82;100437.63;5051183;28;46121;-66
2021/12/01 00:52:06;;;;;;;;;11.00;9.75;;;;;10.11;68.03;100435.88;5069453;28;46262;-66
2021/12/01 00:54:32;;;;;;;;;9.75;9.25;;;;;10.15;67.87;100436.72;5070199;28;45825;-68
2021/12/01 00:56:57;;;;;;;;;12.50;9.00;;;;;10.16;67.81;100441.97;5070883;28;45975;-66
2021/12/01 00:59:23;;;;;;;;;8.75;8.75;;;;;10.16;68.11;100428.03;5070034;28;45931;-67
2021/12/01 01:01:51;;;;;;;;;9.00;8.00;;;;;10.15;68.38;100414.03;5070404;28;46699;-67
2021/12/01 01:04:16;;;;;;;;;12.75;9.50;;;;;10.16;68.02;100407.97;5070361;28;45730;-68
2021/12/01 01:06:43;;;;;;;;;7.25;7.25;;;;;10.18;68.09;100406.22;5071100;28;45543;-70
2021/12/01 01:09:09;;;;;;;;;9.75;7.75;;;;;10.16;67.98;100392.25;5071499;28;45500;-67
2021/12/01 01:17:07;;;;;;;;;7.00;6.25;;;;;10.21;67.76;100394.88;5051146;28;45831;-67
2021/12/01 01:19:36;;;;;;;;;9.00;8.00;;;;;10.18;67.72;100392.25;5050186;28;45553;-68
2021/12/01 01:22:04;;;;;;;;;7.25;5.75;;;;;10.19;68.00;100381.78;5050165;28;46119;-66
2021/12/01 01:24:30;;;;;;;;;9.00;9.00;;;;;10.21;67.82;100378.28;5049826;28;45418;-67
2021/12/01 01:26:56;;;;;;;;;8.75;8.50;;;;;10.15;67.76;100359.09;5042313;28;47359;-66
2021/12/01 01:29:24;;;;;;;;;11.00;9.50;;;;;10.16;67.83;100371.31;5056308;28;45508;-67
2021/12/01 01:31:55;;;;;;;;;8.75;7.00;;;;;10.18;67.93;100368.72;5050400;28;46390;-67
2021/12/01 01:34:22;;;;;;;;;9.50;8.00;;;;;10.13;68.12;100363.47;5050870;28;45653;-66
2021/12/01 01:36:48;;;;;;;;;11.75;9.00;;;;;10.18;68.07;100363.47;5049746;28;46017;-66
2021/12/01 01:39:15;;;;;;;;;12.50;8.25;;;;;10.21;68.17;100368.69;5050114;28;45625;-67
2021/12/01 01:41:40;;;;;;;;;7.00;7.00;;;;;10.19;67.90;100365.19;5049991;28;46001;-67
2021/12/01 01:44:06;;;;;;;;;8.00;8.00;;;;;10.18;68.10;100355.63;5050188;28;45476;-66
2021/12/01 01:46:43;;;;;;;;;9.00;9.00;;;;;10.21;67.81;100363.47;5050179;28;45541;-66
2021/12/01 01:49:20;;;;;;;;;9.25;9.25;;;;;10.13;68.09;100349.50;5048409;28;45877;-66
2021/12/01 01:51:49;;;;;;;;;9.00;8.75;;;;;10.15;68.02;100342.53;5050323;28;46851;-66
2021/12/01 01:54:27;;;;;;;;;9.00;9.00;;;;;10.20;67.92;100346.00;5050825;28;45498;-66
2021/12/01 01:56:53;;;;;;;;;10.00;9.50;;;;;10.20;67.87;100353.84;5050447;28;45882;-67
2021/12/01 01:59:43;;;;;;;;;8.50;8.50;;;;;10.19;67.98;100358.22;5051317;28;45966;-66
2021/12/01 02:02:10;;;;;;;;;12.00;9.00;;;;;9.95;68.11;100305.94;5048483;28;47868;-66
2021/12/01 02:04:35;;;;;;;;;7.25;7.25;;;;;10.22;67.75;100349.47;5049558;28;45761;-66
2021/12/01 02:07:18;;;;;;;;;7.50;6.75;;;;;10.22;67.88;100349.47;5050531;28;45646;-66
2021/12/01 02:09:44;;;;;;;;;10.50;9.00;;;;;10.11;67.99;100322.50;5049804;27;46037;-66
2021/12/01 02:12:10;;;;;;;;;11.25;8.00;;;;;10.23;68.11;100332.91;5049430;28;45690;-67
2021/12/01 02:14:36;;;;;;;;;10.75;9.00;;;;;10.24;68.00;100332.03;5049702;28;45523;-66
2021/12/01 02:17:01;;;;;;;;;12.50;9.25;;;;;10.21;68.33;100316.34;5049754;28;45425;-66
2021/12/01 02:19:27;;;;;;;;;11.50;9.25;;;;;10.23;68.53;100317.22;5049732;28;45513;-65
2021/12/01 02:21:56;;;;;;;;;9.25;9.25;;;;;10.14;68.20;100293.69;5049185;28;46095;-67
2021/12/01 02:24:25;;;;;;;;;10.00;10.00;;;;;10.24;68.56;100299.75;5049386;28;45473;-67
2021/12/01 02:26:51;;;;;;;;;9.00;7.50;;;;;10.17;68.89;100284.06;5049124;28;45902;-66
2021/12/01 02:29:22;;;;;;;;;9.50;9.25;;;;;10.22;68.81;100291.03;5049743;28;45478;-66
2021/12/01 02:31:49;;;;;;;;;9.75;9.25;;;;;10.26;68.89;100280.56;5047416;28;47635;-67
2021/12/01 02:34:18;;;;;;;;;11.75;10.00;;;;;10.24;69.16;100274.44;5048861;28;45588;-67
2021/12/01 02:36:47;;;;;;;;;13.00;11.00;;;;;10.20;69.60;100272.72;5048975;28;45805;-67
2021/12/01 02:39:15;;;;;;;;;14.75;11.00;;;;;10.17;69.74;100255.28;5049315;27;45534;-66
2021/12/01 02:41:43;;;;;;;;;9.50;9.50;;;;;10.10;69.65;100250.94;5048764;28;46219;-66
2021/12/01 02:44:11;;;;;;;;;12.75;10.00;;;;;10.02;69.99;100218.72;5049270;28;45853;-67
2021/12/01 02:46:37;;;;;;;;;11.00;10.00;;;;;10.06;70.61;100230.03;5049056;28;45507;-66
2021/12/01 02:49:04;;;;;;;;;12.25;11.00;;;;;10.15;70.27;100233.47;5047340;28;45544;-66
2021/12/01 02:51:31;;;;;;;;;14.25;12.00;;;;;10.10;70.22;100227.41;5046871;28;47963;-66
2021/12/01 02:53:56;;;;;;;;;11.50;9.25;;;;;10.03;69.82;100196.91;5047761;28;45750;-66
2021/12/01 02:56:23;;;;;;;;;10.50;10.50;;;;;10.20;70.29;100215.13;5048215;28;45432;-66
2021/12/01 02:58:51;;;;;;;;;11.00;10.25;;;;;10.20;70.12;100202.03;5048484;28;45927;-66
2021/12/01 03:01:23;;;;;;;;;12.00;10.75;;;;;10.09;70.41;100178.56;5050574;28;46227;-66
2021/12/01 03:03:50;;;;;;;;;10.50;9.00;;;;;10.15;70.28;100182.88;5056178;28;45862;-66
2021/12/01 03:06:21;;;;;;;;;10.75;10.50;;;;;10.15;70.01;100178.50;5052373;28;45569;-66
2021/12/01 03:08:47;;;;;;;;;8.75;7.25;;;;;10.16;70.18;100166.31;5052185;28;45848;-65
2021/12/01 03:11:14;;;;;;;;;7.50;7.50;;;;;10.12;70.27;100139.28;5054454;28;45812;-66
2021/12/01 03:13:40;;;;;;;;;7.75;7.75;;;;;10.14;70.41;100145.38;5051735;28;45919;-66
2021/12/01 03:16:07;;;;;;;;;6.00;5.75;;;;;10.17;70.58;100132.28;5051960;28;45804;-66
2021/12/01 03:18:32;;;;;;;;;8.00;6.25;;;;;10.17;70.42;100119.19;5051997;28;45692;-66
2021/12/01 03:20:58;;;;;;;;;7.00;6.00;;;;;10.15;70.34;100114.84;5051826;28;45678;-66
2021/12/01 03:23:25;;;;;;;;;7.50;5.00;;;;;10.17;70.17;100107.88;5052220;28;45936;-66
2021/12/01 03:25:51;;;;;;;;;7.50;6.00;;;;;10.15;70.27;100099.16;5052051;28;45923;-66
2021/12/01 03:28:18;;;;;;;;;4.00;4.00;;;;;10.05;70.55;100095.72;5052528;28;45698;-66
2021/12/01 03:30:44;;;;;;;;;7.00;5.25;;;;;10.08;70.50;100085.22;5055552;28;46559;-66
2021/12/01 03:33:12;;;;;;;;;4.00;4.00;;;;;10.18;70.63;100094.78;5053429;28;45496;-66
2021/12/01 03:35:41;;;;;;;;;4.25;4.00;;;;;10.17;70.76;100093.03;5051526;28;45539;-66
2021/12/01 03:38:06;;;;;;;;;4.00;3.25;;;;;10.15;70.55;100076.47;5051974;28;45542;-66
2021/12/01 03:40:33;;;;;;;;;4.25;4.25;;;;;10.09;71.05;100068.66;5051435;28;45649;-66
2021/12/01 03:42:58;;;;;;;;;4.00;4.00;;;;;10.17;70.86;100064.25;5054549;28;45452;-66
2021/12/01 03:45:25;;;;;;;;;4.00;3.00;;;;;10.05;70.83;100037.31;5053979;28;45650;-66
2021/12/01 03:47:51;;;;;;;;;4.00;4.00;;;;;10.20;70.82;100055.50;5051912;28;45930;-66
2021/12/01 03:50:17;;;;;;;;;3.00;3.00;;;;;10.17;71.07;100042.44;5051327;28;46367;-66
2021/12/01 03:52:42;;;;;;;;;3.50;3.50;;;;;10.17;71.59;100042.44;5051321;28;46004;-67
2021/12/01 03:55:09;;;;;;;;;4.75;4.00;;;;;10.04;71.71;100002.44;5054988;28;45569;-66
2021/12/01 03:57:35;;;;;;;;;4.00;4.00;;;;;10.06;71.88;100003.28;5032464;28;45934;-66
2021/12/01 04:00:04;;;;;;;;;8.50;5.00;;;;;10.17;71.69;100014.50;5014085;28;46408;-65
2021/12/01 04:02:30;;;;;;;;;5.75;5.25;;;;;10.15;72.26;100015.41;5045858;28;45885;-66
2021/12/01 04:04:55;;;;;;;;;6.25;5.25;;;;;10.13;72.43;100004.97;5051077;28;45466;-65
2021/12/01 04:07:21;;;;;;;;;5.00;5.00;;;;;10.04;72.44;99989.34;5051114;28;45923;-66
2021/12/01 04:09:47;;;;;;;;;9.50;5.25;;;;;10.08;73.17;99993.66;5051039;28;45882;-66
2021/12/01 04:12:13;;;;;;;;;7.50;6.25;;;;;10.04;73.04;99988.47;5037042;28;45684;-66
2021/12/01 04:14:38;;;;;;;;;7.75;6.25;;;;;9.91;73.84;99962.41;5031361;28;45776;-65
2021/12/01 04:17:05;;;;;;;;;5.25;5.25;;;;;9.92;74.19;99948.44;5031822;28;45497;-67
2021/12/01 04:19:31;;;;;;;;;8.50;7.50;;;;;9.96;74.18;99931.81;5033132;28;45978;-66
2021/12/01 04:21:57;;;;;;;;;7.25;7.25;;;;;9.92;74.45;99930.13;5054813;28;45522;-65
2021/12/01 04:24:24;;;;;;;;;2.00;2.00;;;;;9.80;74.99;99911.03;5051471;28;45864;-66
2021/12/01 04:26:50;;;;;;;;;6.75;6.25;;;;;9.88;74.80;99924.94;5033526;28;45532;-66
2021/12/01 04:29:15;;;;;;;;;7.00;7.00;;;;;9.80;74.99;99898.88;5054525;28;46362;-67
2021/12/01 04:31:41;;;;;;;;;8.00;7.50;;;;;9.88;75.07;99904.03;5052707;28;45611;-66
2021/12/01 04:34:07;;;;;;;;;8.75;7.25;;;;;9.90;74.95;99908.34;5051223;28;45883;-67
2021/12/01 04:36:37;;;;;;;;;10.00;6.75;;;;;9.90;74.86;99903.13;5049735;28;45583;-65
2021/12/01 04:39:10;;;;;;;;;5.25;5.25;;;;;9.94;74.60;99890.88;5034097;28;45836;-66
2021/12/01 04:41:55;;;;;;;;;8.00;8.00;;;;;9.91;74.56;99888.28;5034549;28;45511;-66
2021/12/01 04:44:23;;;;;;;;;5.00;4.50;;;;;9.91;74.86;99869.97;5034277;28;45672;-65
2021/12/01 04:46:52;;;;;;;;;6.00;5.75;;;;;9.91;75.13;99869.97;5034144;28;45478;-65
2021/12/01 04:49:24;;;;;;;;;5.25;4.00;;;;;9.88;75.03;99873.50;5033503;28;45682;-65
2021/12/01 04:51:53;;;;;;;;;5.25;4.00;;;;;9.76;75.11;99856.16;5015925;28;45517;-66
2021/12/01 04:54:19;;;;;;;;;4.75;4.75;;;;;9.87;75.30;99865.66;5034237;28;45521;-66
2021/12/01 04:56:46;;;;;;;;;6.00;3.00;;;;;9.85;75.65;99857.84;5033720;28;45400;-66
2021/12/01 04:59:12;;;;;;;;;4.00;4.00;;;;;9.86;75.59;99863.94;5031053;28;45864;-66
2021/12/01 05:01:38;;;;;;;;;4.75;3.00;;;;;9.87;75.21;99843.00;5029976;28;45432;-66
2021/12/01 05:04:05;;;;;;;;;3.00;3.00;;;;;9.89;75.19;99835.97;5032792;28;45516;-66
2021/12/01 05:06:30;;;;;;;;;4.00;2.00;;;;;9.88;75.48;99836.00;5030064;28;45830;-67
2021/12/01 05:08:56;;;;;;;;;3.75;3.00;;;;;9.87;75.68;99824.69;5029639;28;45775;-66
2021/12/01 05:11:22;;;;;;;;;2.25;2.25;;;;;9.89;75.53;99828.13;5028244;28;45609;-66
2021/12/01 05:13:47;;;;;;;;;2.00;2.00;;;;;9.89;75.37;99811.59;5030152;28;45428;-66
2021/12/01 05:16:13;;;;;;;;;1.25;1.00;;;;;9.92;75.29;99803.72;5030243;28;45878;-66
2021/12/01 05:18:39;;;;;;;;;2.00;2.00;;;;;9.85;75.68;99783.75;5049536;28;46390;-66
2021/12/01 05:21:04;;;;;;;;;2.25;1.75;;;;;9.86;76.05;99790.69;5050059;28;45441;-66
2021/12/01 05:23:31;;;;;;;;;2.50;2.00;;;;;9.81;75.94;99792.50;5050619;28;45988;-66
2021/12/01 05:25:56;;;;;;;;;1.00;1.00;;;;;9.80;75.54;99785.50;5051288;28;45503;-66
2021/12/01 05:28:24;;;;;;;;;2.00;1.00;;;;;9.88;75.82;99794.16;5049515;28;46058;-66
2021/12/01 05:30:50;;;;;;;;;1.00;1.00;;;;;9.80;75.79;99762.88;5049553;28;45907;-66
2021/12/01 05:33:23;;;;;;;;;1.00;1.00;;;;;9.75;76.06;99752.47;5049957;28;45783;-67
2021/12/01 05:35:49;;;;;;;;;3.00;2.00;;;;;9.76;76.23;99754.19;5053870;27;45511;-66
2021/12/01 05:38:15;;;;;;;;;1.75;1.75;;;;;9.88;76.11;99778.47;5052859;28;45525;-67
2021/12/01 05:40:41;;;;;;;;;1.00;1.00;;;;;9.77;75.70;99755.03;5053452;28;45540;-66
2021/12/01 05:43:08;;;;;;;;;3.00;1.00;;;;;9.87;75.91;99755.81;5053388;28;45469;-66
2021/12/01 05:45:35;;;;;;;;;4.00;1.00;;;;;9.86;76.25;99765.41;5068783;27;45510;-66
2021/12/01 05:48:01;;;;;;;;;1.00;1.00;;;;;9.74;76.35;99737.63;5049093;27;46500;-66
2021/12/01 05:50:27;;;;;;;;;0.00;0.00;;;;;9.85;76.25;99749.75;5049693;28;46324;-67
2021/12/01 05:52:53;;;;;;;;;0.25;0.25;;;;;9.68;76.02;99716.78;5049705;28;45738;-65
2021/12/01 05:55:18;;;;;;;;;2.00;1.00;;;;;9.83;76.22;99743.66;5065528;28;45943;-66
2021/12/01 05:57:44;;;;;;;;;1.00;1.00;;;;;9.55;76.63;99705.59;5052127;28;46089;-66
2021/12/01 06:00:12;;;;;;;;;1.00;1.00;;;;;9.81;76.24;99733.22;5049522;28;45611;-66
2021/12/01 06:02:38;;;;;;;;;1.00;1.00;;;;;9.84;76.60;99734.91;5050680;28;45552;-65
2021/12/01 06:05:05;;;;;;;;;1.00;1.00;;;;;9.83;76.42;99735.81;5053581;28;45490;-65
2021/12/01 06:07:30;;;;;;;;;4.00;1.00;;;;;9.81;76.78;99730.59;5053403;28;46226;-65
2021/12/01 06:10:01;;;;;;;;;1.00;1.00;;;;;9.79;76.75;99710.56;5051344;28;45877;-65
2021/12/01 06:12:27;;;;;;;;;0.50;0.50;;;;;9.84;76.98;99714.00;5049929;27;45795;-66
2021/12/01 06:14:53;;;;;;;;;1.00;1.00;;;;;9.81;76.77;99693.97;5053078;28;45866;-65
2021/12/01 06:17:19;;;;;;;;;2.25;1.00;;;;;9.88;77.04;99708.72;5049756;27;46618;-65
2021/12/01 06:19:44;;;;;;;;;4.25;2.00;;;;;9.87;77.00;99693.91;5047899;28;45550;-66
2021/12/01 06:22:10;;;;;;;;;2.25;1.25;;;;;9.92;77.06;99696.50;5049706;28;45916;-66
2021/12/01 06:24:36;;;;;;;;;1.00;1.00;;;;;9.91;77.06;99679.91;5050208;28;45504;-67
2021/12/01 06:27:02;;;;;;;;;1.75;0.50;;;;;9.91;77.03;99681.66;5048808;28;45575;-67
2021/12/01 06:29:28;;;;;;;;;1.00;1.00;;;;;9.87;77.35;99670.38;5048997;28;45954;-66
2021/12/01 06:31:53;;;;;;;;;0.75;0.75;;;;;9.94;76.68;99669.41;5048848;28;46042;-66
2021/12/01 06:34:19;;;;;;;;;0.00;0.00;;;;;10.05;76.99;99674.50;5049277;28;45792;-66
2021/12/01 06:36:45;;;;;;;;;1.00;0.50;;;;;9.92;77.00;99639.81;5052899;28;46086;-68
2021/12/01 06:39:13;;;;;;;;;0.00;0.00;;;;;9.94;77.01;99642.38;5037471;28;45976;-67
2021/12/01 06:41:39;;;;;;;;;0.00;0.00;;;;;10.01;77.18;99646.63;5055153;28;45748;-66
2021/12/01 06:44:05;;;;;;;;;1.75;1.00;;;;;10.11;77.19;99657.88;5056278;28;45572;-65
2021/12/01 06:46:31;;;;;;;;;0.00;0.00;;;;;10.09;77.22;99657.03;5052328;28;47791;-66
2021/12/01 06:48:57;;;;;;;;;0.00;0.00;;;;;10.12;77.20;99642.13;5052503;28;46043;-65
2021/12/01 06:51:23;;;;;;;;;1.00;0.00;;;;;10.16;77.69;99643.84;5049690;28;46080;-66
2021/12/01 06:53:51;;;;;;;;;0.00;0.00;;;;;9.92;77.17;99610.16;5049971;28;45705;-67
2021/12/01 06:56:18;;;;;;;;;1.00;1.00;;;;;10.25;77.10;99647.19;5050146;28;46653;-66
2021/12/01 06:58:45;;;;;;;;;0.00;0.00;;;;;10.24;77.54;99646.34;5043197;28;45644;-67
2021/12/01 07:01:11;;;;;;;;;0.25;0.25;;;;;10.18;77.23;99647.31;5052391;28;45482;-67
2021/12/01 07:03:36;;;;;;;;;0.25;0.00;;;;;10.28;77.35;99631.47;5052507;28;45534;-66
2021/12/01 07:06:02;;;;;;;;;0.00;0.00;;;;;10.18;77.10;99630.75;5045100;28;46674;-68
2021/12/01 07:08:28;;;;;;;;;0.00;0.00;;;;;10.30;77.42;99650.69;5052169;28;45418;-66
2021/12/01 07:10:54;;;;;;;;;0.00;0.00;;;;;10.23;77.18;99617.56;5052207;28;45484;-66
2021/12/01 07:13:20;;;;;;;;;0.00;0.00;;;;;10.26;77.69;99628.88;5068038;28;45632;-67
2021/12/01 07:15:46;;;;;;;;;0.25;0.25;;;;;10.27;77.56;99630.59;5052133;28;45510;-67
2021/12/01 07:18:15;;;;;;;;;0.00;0.00;;;;;10.34;77.25;99619.16;5052275;28;45543;-66
2021/12/01 07:20:44;;;;;;;;;0.00;0.00;;;;;10.38;77.42;99626.09;5051413;28;45468;-67
2021/12/01 07:23:11;;;;;;;;;0.75;0.75;;;;;10.44;77.65;99637.34;5052219;28;46151;-67
2021/12/01 07:25:36;;;;;;;;;0.25;0.00;;;;;10.35;77.59;99615.69;5051683;28;45660;-65
2021/12/01 07:28:02;;;;;;;;;0.00;0.00;;;;;10.37;77.66;99618.28;5051793;28;45860;-66
2021/12/01 07:30:28;;;;;;;;;0.00;0.00;;;;;10.48;77.85;99634.66;5051430;28;45539;-67
2021/12/01 07:32:54;;;;;;;;;0.00;0.00;;;;;10.51;77.79;99629.41;5052168;28;45533;-67
2021/12/01 07:35:19;;;;;;;;;0.00;0.00;;;;;10.47;77.45;99613.78;5051864;28;46421;-67
2021/12/01 07:37:46;;;;;;;;;0.00;0.00;;;;;10.55;77.24;99638.06;5051608;28;45486;-67
2021/12/01 07:40:12;;;;;;;;;0.00;0.00;;;;;10.50;77.57;99621.56;5051560;28;45826;-66
2021/12/01 07:42:38;;;;;;;;;0.00;0.00;;;;;10.59;77.18;99632.75;5051048;28;45676;-67
2021/12/01 07:45:05;;;;;;;;;2.00;0.00;;;;;10.59;77.39;99640.63;5051844;28;45890;-67
2021/12/01 07:47:31;;;;;;;;;0.00;0.00;;;;;10.63;77.21;99644.06;5051079;28;45500;-67
2021/12/01 07:50:00;;;;;;;;;0.00;0.00;;;;;10.65;77.19;99642.25;5051283;28;45433;-67
2021/12/01 07:52:25;;;;;;;;;2.00;0.00;;;;;10.66;76.99;99628.28;5051788;28;45559;-65
2021/12/01 07:54:51;;;;;;;;;0.00;0.00;;;;;10.74;77.05;99638.66;5051384;28;46177;-66
2021/12/01 07:57:17;;;;;;;;;0.00;0.00;;;;;10.70;76.59;99614.28;5051397;28;45489;-67
2021/12/01 07:59:42;;;;;;;;;1.25;1.00;;;;;10.81;76.84;99637.66;5050949;28;45508;-67
2021/12/01 08:02:08;;;;;;;;;0.00;0.00;;;;;10.84;76.70;99611.41;5051353;28;45941;-66
2021/12/01 08:04:34;;;;;;;;;1.75;0.00;;;;;10.78;76.64;99595.81;5051034;28;46169;-65
2021/12/01 08:07:00;;;;;;;;;0.00;0.00;;;;;10.90;76.86;99619.16;5051557;28;45510;-66
2021/12/01 08:09:26;;;;;;;;;0.00;0.00;;;;;10.87;76.50;99606.13;5051719;28;45750;-66
2021/12/01 08:11:52;;;;;;;;;0.00;0.00;;;;;10.95;76.33;99617.31;5051564;28;45813;-66
2021/12/01 08:14:18;;;;;;;;;0.00;0.00;;;;;10.90;76.07;99590.34;5051393;28;46140;-66
2021/12/01 08:16:44;;;;;;;;;0.00;0.00;;;;;10.98;76.32;99593.69;5051043;28;45857;-66
2021/12/01 08:19:10;;;;;;;;;0.00;0.00;;;;;11.02;75.96;99602.38;5051212;28;45944;-66
2021/12/01 08:21:36;;;;;;;;;0.00;0.00;;;;;11.06;75.87;99601.44;5032865;28;45487;-67
2021/12/01 08:24:02;;;;;;;;;0.00;0.00;;;;;11.03;76.14;99598.84;5032976;28;46051;-67
2021/12/01 08:26:28;;;;;;;;;0.00;0.00;;;;;11.05;76.14;99597.06;5050699;28;45660;-65
2021/12/01 08:28:54;;;;;;;;;0.00;0.00;;;;;11.06;76.04;99590.06;5050984;28;45391;-67
2021/12/01 08:31:20;;;;;;;;;0.00;0.00;;;;;11.09;75.62;99598.75;5065935;27;45851;-67
2021/12/01 08:33:47;;;;;;;;;1.00;1.00;;;;;11.00;75.34;99567.47;5050417;28;46328;-66
2021/12/01 08:36:13;;;;;;;;;1.00;0.33;;;;;11.24;75.01;99574.84;5050162;28;45899;-65
2021/12/01 08:38:41;;;;;;;;;1.33;1.33;;;;;11.53;75.11;99578.69;5050337;28;45762;-67
2021/12/01 08:41:07;;;;;;;;;4.75;4.00;;;;;11.62;74.30;99575.00;5048822;28;45822;-66
2021/12/01 08:43:33;;;;;;;;;0.00;0.00;;;;;11.88;73.18;99561.34;5040996;28;47085;-66
2021/12/01 08:46:04;;;;;;;;;0.00;0.00;;;;;13.70;69.67;99589.16;5031576;28;45483;-66
2021/12/01 08:48:29;;;;;;;;;0.00;0.00;;;;;14.04;67.90;99578.47;5046928;28;45631;-65
2021/12/01 08:50:56;;;;;;;;;0.00;0.00;;;;;14.22;66.99;99590.22;5050346;28;45731;-66
2021/12/01 08:53:23;;;;;;;;;0.00;0.00;;;;;14.13;66.94;99572.06;5050327;28;45832;-66
2021/12/01 08:55:49;;;;;;;;;3.00;0.00;;;;;13.91;66.53;99579.78;5050215;28;45866;-69
2021/12/01 08:58:17;;;;;;;;;1.00;1.00;;;;;13.66;66.92;99579.63;5049050;28;45758;-66
2021/12/01 09:00:45;;;;;;;;;0.00;0.00;;;;;13.59;67.90;99586.81;5050043;28;45764;-68
2021/12/01 09:03:17;;;;;;;;;0.00;0.00;;;;;13.46;66.99;99552.13;5049643;28;46205;-66
2021/12/01 09:05:44;;;;;;;;;1.33;0.00;;;;;14.16;66.18;99571.97;5032064;28;46009;-66
2021/12/01 09:08:11;;;;;;;;;0.00;0.00;;;;;15.17;63.89;99557.22;5050962;28;45513;-66
2021/12/01 09:10:37;;;;;;;;;1.00;0.00;;;;;16.61;60.40;99562.28;5050902;28;46099;-66
2021/12/01 09:13:04;;;;;;;;;1.00;0.00;;;;;18.07;56.57;99547.88;5050484;28;45914;-68
2021/12/01 09:15:30;;;;;;;;;0.00;0.00;;;;;18.34;56.11;99555.41;5050674;28;45680;-67
2021/12/01 09:17:57;;;;;;;;;0.00;0.00;;;;;18.26;54.79;99560.25;5050484;28;45783;-66
2021/12/01 09:20:24;;;;;;;;;1.00;1.00;;;;;18.48;53.52;99558.25;5050411;28;45539;-67
2021/12/01 09:22:50;;;;;;;;;0.00;0.00;;;;;19.07;51.97;99562.38;5050128;28;46136;-66
2021/12/01 09:25:16;;;;;;;;;1.00;1.00;;;;;19.18;50.98;99561.81;5050253;28;45600;-67
2021/12/01 09:27:44;;;;;;;;;2.00;0.00;;;;;18.69;52.17;99561.63;5050417;28;45526;-67
2021/12/01 09:30:11;;;;;;;;;1.00;1.00;;;;;18.08;52.38;99560.22;5050300;28;45481;-66
2021/12/01 09:32:38;;;;;;;;;0.33;0.00;;;;;17.66;52.91;99553.31;5049739;28;45496;-68
2021/12/01 09:35:05;;;;;;;;;1.00;1.00;;;;;17.15;54.24;99541.47;5044299;28;45522;-66
2021/12/01 09:37:35;;;;;;;;;1.00;1.00;;;;;16.65;54.58;99547.97;5029996;28;45589;-67
2021/12/01 09:40:03;;;;;;;;;1.00;1.00;;;;;15.85;55.02;99531.84;5029138;28;45569;-69
2021/12/01 09:42:29;;;;;;;;;1.00;1.00;;;;;15.68;55.45;99566.78;5029795;28;46444;-66
2021/12/01 09:44:56;;;;;;;;;1.00;0.33;;;;;15.32;55.80;99572.50;5030209;28;45665;-66
2021/12/01 09:47:33;;;;;;;;;0.33;0.33;;;;;15.03;56.47;99582.28;5045129;28;46340;-66
2021/12/01 09:50:02;;;;;;;;;0.00;0.00;;;;;14.75;57.10;99581.53;5050069;28;45469;-67
2021/12/01 09:52:31;;;;;;;;;3.00;1.00;;;;;14.51;57.47;99591.06;5049989;28;46853;-68
2021/12/01 09:55:03;;;;;;;;;1.33;0.67;;;;;14.28;58.04;99594.44;5048074;28;45825;-66
2021/12/01 09:57:32;;;;;;;;;2.67;1.00;;;;;14.07;58.75;99596.84;5050388;28;45929;-66
2021/12/01 10:00:02;;;;;;;;;1.67;1.00;;;;;13.91;59.48;99604.31;5049756;28;45478;-66
2021/12/01 10:02:31;;;;;;;;;1.67;1.00;;;;;13.64;60.22;99600.72;5049545;28;45914;-66
2021/12/01 10:04:58;;;;;;;;;2.67;0.67;;;;;13.46;60.47;99588.09;5046012;28;45483;-65
2021/12/01 10:07:34;;;;;;;;;2.00;1.00;;;;;13.27;61.23;99591.22;5049581;28;46522;-65
2021/12/01 10:10:13;;;;;;;;;1.00;1.00;;;;;13.18;60.87;99595.84;5030957;28;45899;-66
2021/12/01 10:12:51;;;;;;;;;2.00;0.00;;;;;13.09;61.65;99604.81;5049237;28;45691;-66
2021/12/01 10:15:32;;;;;;;;;1.00;1.00;;;;;13.00;62.37;99619.06;5049890;28;45609;-65
2021/12/01 10:18:18;;;;;;;;;3.00;0.00;;;;;12.93;62.80;99602.63;5049244;28;45509;-65
2021/12/01 10:21:15;;;;;;;;;26.00;23.75;;;;;12.78;62.02;99599.50;5049021;28;46060;-67
2021/12/01 10:23:47;;;;;;;;;0.00;0.00;;;;;12.76;62.27;99599.53;5047003;28;46933;-66
2021/12/01 10:26:26;;;;;;;;;0.00;0.00;;;;;12.70;62.54;99602.34;5047926;28;45525;-66
2021/12/01 10:28:56;;;;;;;;;2.00;0.00;;;;;12.66;62.76;99583.13;5048146;28;45473;-66
2021/12/01 10:31:37;;;;;;;;;0.00;0.00;;;;;12.68;62.79;99573.47;5048842;28;45883;-66
2021/12/01 10:34:31;;;;;;;;;1.00;0.00;;;;;12.87;62.60;99612.41;5048227;28;46200;-66
2021/12/01 10:37:25;;;;;;;;;0.00;0.00;;;;;12.88;61.98;99604.50;5048655;28;45616;-67
2021/12/01 10:40:17;;;;;;;;;0.00;0.00;;;;;12.79;63.25;99607.34;5046146;28;45457;-68
2021/12/01 10:43:04;;;;;;;;;0.00;0.00;;;;;12.65;63.16;99605.06;5043052;28;45947;-67
2021/12/01 10:45:46;;;;;;;;;0.00;0.00;;;;;12.64;63.48;99602.47;5047516;28;45541;-66
2021/12/01 10:48:20;;;;;;;;;0.00;0.00;;;;;12.53;63.91;99597.50;5047944;28;45856;-67
2021/12/01 10:50:46;;;;;;;;;1.00;1.00;;;;;12.49;63.46;99603.72;5048426;28;45941;-66
2021/12/01 10:53:21;;;;;;;;;2.00;1.00;;;;;12.45;63.75;99605.53;5046198;28;45768;-67
2021/12/01 10:56:02;;;;;;;;;2.67;1.00;;;;;12.44;63.73;99597.72;5047184;28;46005;-66
2021/12/01 10:58:40;;;;;;;;;2.33;1.67;;;;;12.32;63.80;99588.34;5043836;28;45591;-66
2021/12/01 11:01:21;;;;;;;;;1.33;1.33;;;;;12.35;63.95;99604.03;5044857;28;45557;-67
2021/12/01 11:03:47;;;;;;;;;0.67;0.67;;;;;12.41;64.04;99582.88;5047833;28;45807;-66
2021/12/01 11:06:20;;;;;;;;;2.00;1.00;;;;;12.67;64.12;99577.00;5032934;28;47205;-68
2021/12/01 11:08:58;;;;;;;;;1.00;1.00;;;;;13.08;63.50;99589.97;5041340;28;45627;-68
2021/12/01 11:11:34;;;;;;;;;1.00;1.00;;;;;13.35;62.61;99585.75;5039929;28;46003;-67
2021/12/01 11:14:09;;;;;;;;;1.00;1.00;;;;;13.55;61.72;99586.06;5047297;28;45782;-67
2021/12/01 11:16:43;;;;;;;;;3.00;1.00;;;;;13.61;61.43;99579.75;5047742;28;45588;-67
2021/12/01 11:19:10;;;;;;;;;1.00;1.00;;;;;13.62;61.06;99581.50;5029030;28;45567;-67
2021/12/01 11:21:37;;;;;;;;;1.67;1.33;;;;;13.59;61.01;99584.19;5048289;28;45473;-67
2021/12/01 11:24:12;;;;;;;;;2.67;1.67;;;;;13.53;61.11;99584.38;5051117;28;45568;-67
2021/12/01 11:26:44;;;;;;;;;2.00;0.33;;;;;13.44;60.09;99574.97;5051387;28;46074;-67
2021/12/01 11:29:15;;;;;;;;;3.00;1.00;;;;;13.31;60.20;99565.69;5050943;28;45781;-67
2021/12/01 11:31:47;;;;;;;;;1.00;1.00;;;;;13.31;60.40;99578.84;5032843;28;45564;-66
2021/12/01 11:34:17;;;;;;;;;2.00;2.00;;;;;13.23;60.37;99562.41;5051004;28;45905;-66
2021/12/01 11:36:50;;;;;;;;;3.00;1.00;;;;;13.27;60.75;99570.19;5051487;28;46242;-66
2021/12/01 11:39:22;;;;;;;;;3.00;2.00;;;;;13.23;60.21;99579.03;5050826;28;45846;-67
2021/12/01 11:41:50;;;;;;;;;1.00;1.00;;;;;13.14;60.33;99560.88;5051431;28;45413;-68